createdAt,value
2022-08-14T00:01:32.140Z,66.63
2022-08-14T00:04:01.234Z,67.06
2022-08-14T00:06:54.986Z,67.05
2022-08-14T00:09:25.127Z,66.83
2022-08-14T00:12:04.052Z,66.94
2022-08-14T00:14:39.552Z,67.36
2022-08-14T00:20:08.604Z,67.21
2022-08-14T00:22:56.971Z,67.37
2022-08-14T00:25:41.760Z,67.52
2022-08-14T00:28:15.005Z,67.40
2022-08-14T00:34:36.685Z,67.51
2022-08-14T00:36:49.392Z,67.45
2022-08-14T00:39:18.175Z,67.75
2022-08-14T00:41:47.974Z,67.48
2022-08-14T00:44:21.320Z,67.63
2022-08-14T00:47:10.871Z,68.01
2022-08-14T00:49:46.870Z,67.56
2022-08-14T00:52:18.076Z,67.61
2022-08-14T00:54:57.943Z,67.70
2022-08-14T00:57:29.911Z,68.05
2022-08-14T01:00:00.532Z,68.20
2022-08-14T01:02:34.564Z,67.72
2022-08-14T01:05:07.644Z,68.14
2022-08-14T01:07:47.180Z,68.15
2022-08-14T01:10:19.290Z,68.28
2022-08-14T01:12:48.829Z,67.72
2022-08-14T01:18:57.883Z,68.26
2022-08-14T01:25:13.385Z,68.14
2022-08-14T01:27:57.210Z,68.21
2022-08-14T01:30:40.045Z,68.48
2022-08-14T01:33:13.120Z,68.51
2022-08-14T01:36:03.112Z,68.53
2022-08-14T01:41:58.089Z,68.80
2022-08-14T01:47:51.029Z,69.09
2022-08-14T01:50:26.662Z,68.31
2022-08-14T01:52:58.339Z,67.80
2022-08-14T01:55:36.861Z,69.29
2022-08-14T01:58:20.330Z,68.87
2022-08-14T02:00:55.004Z,69.23
2022-08-14T02:03:30.898Z,69.15
2022-08-14T02:06:03.935Z,69.43
2022-08-14T02:09:20.673Z,69.26
2022-08-14T02:11:56.376Z,69.43
2022-08-14T02:14:31.441Z,69.23
2022-08-14T02:17:00.387Z,69.61
2022-08-14T02:19:32.382Z,69.64
2022-08-14T02:22:32.680Z,69.53
2022-08-14T02:25:01.508Z,69.56
2022-08-14T02:28:25.439Z,69.89
2022-08-14T02:30:26.953Z,69.29
2022-08-14T02:33:05.633Z,69.33
2022-08-14T02:41:23.466Z,69.57
2022-08-14T02:44:29.788Z,70.06
2022-08-14T02:47:01.163Z,69.77
2022-08-14T02:49:54.894Z,69.86
2022-08-14T02:52:57.869Z,69.89
2022-08-14T02:55:20.087Z,69.56
2022-08-14T03:00:46.316Z,69.59
2022-08-14T03:03:14.880Z,69.55
2022-08-14T03:05:42.317Z,70.04
2022-08-14T03:08:15.417Z,70.02
2022-08-14T03:10:48.712Z,70.04
2022-08-14T03:13:22.269Z,70.14
2022-08-14T03:15:54.997Z,70.41
2022-08-14T03:18:32.039Z,70.18
2022-08-14T03:21:13.523Z,70.54
2022-08-14T03:23:45.878Z,70.72
2022-08-14T03:26:29.739Z,70.05
2022-08-14T03:29:02.412Z,70.23
2022-08-14T03:31:30.469Z,69.87
2022-08-14T03:34:00.053Z,69.66
2022-08-14T03:37:38.519Z,70.47
2022-08-14T03:39:22.198Z,70.62
2022-08-14T03:41:59.902Z,70.78
2022-08-14T03:45:25.438Z,71.08
2022-08-14T03:47:20.296Z,70.71
2022-08-14T03:49:50.250Z,70.74
2022-08-14T03:52:39.073Z,71.01
2022-08-14T03:55:32.266Z,70.80
2022-08-14T03:58:07.217Z,70.86
2022-08-14T04:00:42.602Z,71.11
2022-08-14T04:03:19.643Z,71.02
2022-08-14T04:05:53.628Z,71.50
2022-08-14T04:08:30.528Z,71.75
2022-08-14T04:11:00.968Z,71.69
2022-08-14T04:13:34.014Z,72.05
2022-08-14T04:16:33.679Z,71.94
2022-08-14T04:19:08.629Z,71.66
2022-08-14T04:22:02.269Z,72.07
2022-08-14T04:27:48.551Z,71.35
2022-08-14T04:30:32.975Z,72.23
2022-08-14T04:33:05.530Z,72.07
2022-08-14T04:36:04.991Z,72.59
2022-08-14T04:38:51.015Z,72.29
2022-08-14T04:45:00.582Z,72.00
2022-08-14T04:50:44.425Z,73.43
2022-08-14T04:53:23.028Z,72.89
2022-08-14T04:55:56.060Z,73.45
2022-08-14T04:58:32.691Z,73.15
2022-08-14T05:01:12.811Z,73.56
2022-08-14T05:03:49.596Z,73.56
2022-08-14T05:06:38.042Z,73.70
2022-08-14T05:09:32.303Z,73.14
2022-08-14T05:13:13.606Z,74.22
2022-08-14T05:15:21.786Z,74.40
2022-08-14T05:19:16.607Z,75.21
2022-08-14T05:21:59.945Z,75.50
2022-08-14T05:24:04.683Z,75.68
2022-08-14T05:26:47.250Z,74.68
2022-08-14T05:29:19.503Z,75.06
2022-08-14T05:31:46.276Z,75.45
2022-08-14T05:34:14.260Z,75.25
2022-08-14T05:36:50.545Z,75.49
2022-08-14T05:39:39.538Z,74.98
2022-08-14T05:42:52.558Z,75.08
2022-08-14T05:45:20.416Z,75.11
2022-08-14T05:47:52.498Z,74.96
2022-08-14T05:50:20.284Z,74.83
2022-08-14T05:52:51.076Z,74.18
2022-08-14T05:55:21.992Z,74.32
2022-08-14T05:58:07.436Z,73.68
2022-08-14T06:00:46.474Z,73.18
2022-08-14T06:03:17.029Z,73.44
2022-08-14T06:05:45.688Z,72.61
2022-08-14T06:08:31.034Z,72.56
2022-08-14T06:11:32.254Z,72.54
2022-08-14T06:14:00.291Z,71.84
2022-08-14T06:16:28.425Z,71.94
2022-08-14T06:18:56.450Z,72.11
2022-08-14T06:21:28.259Z,72.48
2022-08-14T06:23:59.495Z,72.83
2022-08-14T06:26:37.588Z,72.22
2022-08-14T06:29:10.781Z,71.76
2022-08-14T06:31:54.808Z,71.45
2022-08-14T06:35:11.299Z,71.43
2022-08-14T06:37:47.818Z,71.44
2022-08-14T06:40:27.416Z,71.54
2022-08-14T06:43:16.136Z,70.69
2022-08-14T06:45:50.386Z,70.90
2022-08-14T06:48:24.416Z,70.37
2022-08-14T06:50:54.299Z,70.60
2022-08-14T06:53:28.069Z,70.58
2022-08-14T06:56:01.008Z,71.13
2022-08-14T06:58:35.769Z,69.76
2022-08-14T07:01:27.478Z,69.88
2022-08-14T07:04:39.135Z,69.61
2022-08-14T07:07:06.517Z,69.89
2022-08-14T07:10:00.465Z,69.72
2022-08-14T07:12:54.087Z,68.93
2022-08-14T07:15:16.281Z,69.83
2022-08-14T07:17:51.872Z,69.01
2022-08-14T07:20:20.535Z,69.34
2022-08-14T07:23:19.663Z,69.05
2022-08-14T07:25:55.058Z,69.12
2022-08-14T07:28:26.946Z,68.95
2022-08-14T07:31:05.073Z,68.85
2022-08-14T07:36:38.247Z,68.26
2022-08-14T07:39:31.279Z,68.73
2022-08-14T07:42:07.894Z,68.67
2022-08-14T07:47:32.243Z,66.53
2022-08-14T07:50:34.474Z,66.70
2022-08-14T07:53:02.814Z,66.75
2022-08-14T07:55:32.927Z,65.70
2022-08-14T07:58:31.711Z,67.42
2022-08-14T08:01:07.428Z,64.17
2022-08-14T08:03:37.873Z,64.20
2022-08-14T08:09:02.982Z,63.85
2022-08-14T08:11:37.525Z,63.63
2022-08-14T08:14:10.275Z,62.41
2022-08-14T08:16:47.444Z,61.96
2022-08-14T08:19:19.129Z,61.64
2022-08-14T08:21:47.059Z,61.74
2022-08-14T08:24:19.967Z,61.63
2022-08-14T08:26:50.355Z,61.44
2022-08-14T08:29:28.576Z,61.14
2022-08-14T08:35:23.412Z,60.24
2022-08-14T08:39:17.791Z,59.22
2022-08-14T08:42:31.137Z,59.82
2022-08-14T08:45:00.264Z,60.33
2022-08-14T08:54:19.636Z,57.97
2022-08-14T09:03:22.504Z,56.06
2022-08-14T09:05:54.029Z,56.22
2022-08-14T09:08:33.730Z,56.32
2022-08-14T09:11:19.324Z,57.97
2022-08-14T09:13:53.077Z,57.14
2022-08-14T09:16:23.631Z,57.40
2022-08-14T09:18:53.477Z,59.29
2022-08-14T09:21:31.281Z,57.47
2022-08-14T09:26:57.969Z,58.23
2022-08-14T09:29:31.782Z,57.18
2022-08-14T09:32:03.776Z,58.59
2022-08-14T09:35:09.731Z,57.90
2022-08-14T09:38:04.678Z,56.36
2022-08-14T09:44:09.111Z,55.98
2022-08-14T09:46:36.381Z,55.52
2022-08-14T09:49:06.676Z,55.64
2022-08-14T09:54:44.585Z,55.80
2022-08-14T09:57:33.421Z,56.58
2022-08-14T10:00:30.307Z,55.92
2022-08-14T10:03:05.176Z,56.02
2022-08-14T10:06:11.967Z,55.76
2022-08-14T10:08:44.431Z,56.66
2022-08-14T10:11:17.831Z,55.96
2022-08-14T10:13:54.335Z,55.84
2022-08-14T10:16:33.342Z,53.26
2022-08-14T10:19:07.258Z,54.62
2022-08-14T10:23:12.264Z,55.25
2022-08-14T10:25:22.575Z,56.99
2022-08-14T10:27:59.604Z,53.56
2022-08-14T10:30:36.428Z,54.46
2022-08-14T10:39:00.368Z,54.41
2022-08-14T10:41:41.967Z,54.86
2022-08-14T10:44:30.032Z,54.32
2022-08-14T10:47:39.224Z,55.11
2022-08-14T10:50:01.080Z,55.69
2022-08-14T10:52:34.867Z,55.07
2022-08-14T10:55:16.011Z,56.59
2022-08-14T10:58:17.777Z,56.21
2022-08-14T11:01:24.591Z,55.46
2022-08-14T11:04:28.232Z,56.76
2022-08-14T11:17:06.998Z,57.78
2022-08-14T11:24:00.145Z,57.95
2022-08-14T12:21:56.158Z,55.07
2022-08-14T12:24:36.236Z,56.34
2022-08-14T12:27:59.089Z,55.90
2022-08-14T12:30:45.175Z,57.37
2022-08-14T12:33:34.127Z,55.48
2022-08-14T12:36:06.486Z,55.10
2022-08-14T12:38:45.108Z,54.58
2022-08-14T12:41:22.091Z,55.88
2022-08-14T12:49:58.579Z,56.11
2022-08-14T12:52:41.664Z,53.75
2022-08-14T12:55:22.492Z,52.47
2022-08-14T12:58:14.009Z,52.73
2022-08-14T13:01:31.687Z,51.08
2022-08-14T13:07:16.844Z,51.12
2022-08-14T13:09:45.168Z,50.16
2022-08-14T13:12:33.367Z,50.41
2022-08-14T13:15:12.164Z,50.75
2022-08-14T13:17:52.184Z,50.81
2022-08-14T13:20:24.493Z,51.80
2022-08-14T13:22:58.525Z,54.00
2022-08-14T13:26:20.533Z,52.39
2022-08-14T13:29:01.520Z,51.57
2022-08-14T13:31:34.195Z,51.08
2022-08-14T13:34:06.588Z,52.39
2022-08-14T13:36:51.647Z,51.17
2022-08-14T13:39:23.661Z,51.78
2022-08-14T13:41:56.043Z,51.54
2022-08-14T13:44:27.299Z,50.81
2022-08-14T13:49:57.936Z,51.17
2022-08-14T13:52:59.297Z,51.47
2022-08-14T13:55:19.698Z,49.19
2022-08-14T13:57:49.633Z,49.46
2022-08-14T14:00:35.913Z,49.38
2022-08-14T14:03:21.948Z,50.28
2022-08-14T14:05:55.169Z,51.78
2022-08-14T14:08:43.195Z,52.61
2022-08-14T14:11:14.156Z,53.78
2022-08-14T14:14:44.948Z,53.17
2022-08-14T14:17:02.766Z,52.15
2022-08-14T14:19:35.314Z,52.65
2022-08-14T14:22:03.024Z,51.54
2022-08-14T14:24:34.801Z,51.95
2022-08-14T14:27:30.114Z,52.06
2022-08-14T14:30:01.453Z,53.43
2022-08-14T14:32:32.145Z,51.87
2022-08-14T14:37:54.959Z,52.75
2022-08-14T14:40:52.026Z,50.57
2022-08-14T14:43:14.038Z,51.38
2022-08-14T14:45:46.505Z,52.04
2022-08-14T14:48:14.270Z,51.03
2022-08-14T14:51:08.307Z,50.64
2022-08-14T14:53:39.159Z,51.01
2022-08-14T14:56:49.721Z,51.39
2022-08-14T14:59:02.401Z,52.54
2022-08-14T15:01:31.963Z,52.42
2022-08-14T15:04:04.114Z,53.66
2022-08-14T15:06:36.764Z,53.89
2022-08-14T15:12:34.390Z,53.28
2022-08-14T15:15:09.067Z,53.57
2022-08-14T15:17:41.571Z,53.40
2022-08-14T15:23:12.640Z,53.48
2022-08-14T15:25:41.194Z,54.96
2022-08-14T15:31:04.938Z,54.72
2022-08-14T15:34:33.411Z,53.87
2022-08-14T15:36:45.466Z,54.82
2022-08-14T15:39:15.365Z,53.94
2022-08-14T15:41:42.400Z,53.82
2022-08-14T15:44:25.191Z,53.89
2022-08-14T15:46:56.088Z,54.10
2022-08-14T15:49:34.589Z,54.12
2022-08-14T15:52:04.153Z,53.78
2022-08-14T15:54:58.235Z,51.80
2022-08-14T15:57:28.215Z,52.18
2022-08-14T16:00:40.736Z,52.96
2022-08-14T16:03:03.506Z,51.38
2022-08-14T16:05:38.547Z,52.13
2022-08-14T16:08:29.539Z,52.97
2022-08-14T16:14:01.327Z,51.74
2022-08-14T16:16:49.083Z,50.77
2022-08-14T16:19:21.124Z,52.38
2022-08-14T16:25:02.650Z,51.08
2022-08-14T16:27:34.142Z,50.50
2022-08-14T16:30:25.460Z,51.54
2022-08-14T16:35:55.752Z,51.54
2022-08-14T16:38:45.806Z,52.17
2022-08-14T16:41:28.518Z,53.03
2022-08-14T16:44:13.807Z,51.08
2022-08-14T16:46:57.147Z,53.48
2022-08-14T16:49:50.493Z,50.19
2022-08-14T16:52:24.981Z,50.95
2022-08-14T16:55:09.864Z,51.88
2022-08-14T16:57:55.076Z,52.33
2022-08-14T17:00:44.148Z,53.90
2022-08-14T17:03:58.723Z,51.52
2022-08-14T17:06:49.752Z,54.14
2022-08-14T17:09:43.148Z,54.27
2022-08-14T17:12:33.698Z,52.67
2022-08-14T17:15:10.283Z,53.55
2022-08-14T17:20:31.067Z,53.73
2022-08-14T17:23:16.951Z,53.44
2022-08-14T17:25:51.023Z,54.60
2022-08-14T17:31:14.225Z,53.87
2022-08-14T17:36:35.657Z,54.94
2022-08-14T17:39:22.790Z,55.77
2022-08-14T17:42:01.813Z,55.77
2022-08-14T17:44:45.361Z,55.28
2022-08-14T17:47:18.594Z,56.14
2022-08-14T17:49:53.902Z,56.62
2022-08-14T17:52:34.558Z,56.04
2022-08-14T17:56:00.935Z,57.24
2022-08-14T17:58:20.971Z,55.97
2022-08-14T18:00:51.767Z,57.62
2022-08-14T18:03:50.787Z,57.97
2022-08-14T18:06:39.956Z,56.64
2022-08-14T18:08:58.645Z,58.24
2022-08-14T18:11:27.200Z,57.55
2022-08-14T18:17:15.910Z,59.13
2022-08-14T18:19:58.202Z,58.66
2022-08-14T18:22:32.866Z,58.85
2022-08-14T18:25:19.086Z,59.72
2022-08-14T18:27:51.484Z,59.85
2022-08-14T18:30:58.511Z,59.71
2022-08-14T18:33:26.431Z,59.55
2022-08-14T18:36:47.744Z,60.03
2022-08-14T18:39:22.711Z,59.13
2022-08-14T18:41:51.844Z,60.37
2022-08-14T18:45:12.651Z,61.20
2022-08-14T18:50:52.460Z,60.80
2022-08-14T18:53:24.743Z,61.24
2022-08-14T18:56:09.925Z,61.82
2022-08-14T18:58:56.897Z,61.86
2022-08-14T19:01:36.780Z,61.98
2022-08-14T19:04:37.097Z,62.35
2022-08-14T19:07:17.750Z,62.59
2022-08-14T19:10:05.807Z,62.33
2022-08-14T19:12:52.898Z,62.71
2022-08-14T19:15:25.788Z,63.29
2022-08-14T19:18:10.667Z,62.69
2022-08-14T19:21:12.950Z,63.58
2022-08-14T19:23:59.261Z,63.02
2022-08-14T19:26:34.732Z,62.78
2022-08-14T19:32:40.896Z,62.43
2022-08-14T19:35:23.107Z,63.73
2022-08-14T19:40:50.349Z,63.49
2022-08-14T19:43:55.394Z,63.09
2022-08-14T19:47:00.017Z,63.36
2022-08-14T19:50:24.334Z,62.74
2022-08-14T19:52:29.819Z,63.11
2022-08-14T19:55:03.996Z,63.22
2022-08-14T19:57:32.402Z,63.47
2022-08-14T20:00:29.158Z,62.63
2022-08-14T20:03:11.174Z,63.51
2022-08-14T20:06:05.897Z,62.45
2022-08-14T20:11:02.380Z,63.00
2022-08-14T20:12:03.046Z,63.34
2022-08-14T20:14:38.352Z,63.60
2022-08-14T20:17:08.363Z,63.49
2022-08-14T20:19:38.135Z,63.39
2022-08-14T20:22:35.469Z,63.18
2022-08-14T20:25:11.894Z,63.12
2022-08-14T20:27:44.076Z,61.40
2022-08-14T20:30:33.851Z,62.42
2022-08-14T20:33:07.700Z,62.31
2022-08-14T20:36:13.665Z,61.91
2022-08-14T20:38:42.337Z,61.38
2022-08-14T20:41:22.439Z,61.18
2022-08-14T20:44:15.720Z,61.64
2022-08-14T20:46:49.982Z,61.55
2022-08-14T20:52:18.535Z,61.56
2022-08-14T20:57:43.810Z,61.07
2022-08-14T21:00:36.899Z,59.43
2022-08-14T21:03:28.791Z,59.68
2022-08-14T21:06:24.843Z,59.65
2022-08-14T21:08:55.522Z,60.11
2022-08-14T21:11:25.693Z,59.56
2022-08-14T21:14:26.839Z,59.41
2022-08-14T21:16:58.504Z,59.56
2022-08-14T21:19:26.857Z,60.12
2022-08-14T21:22:04.440Z,60.19
2022-08-14T21:24:40.078Z,59.46
2022-08-14T21:27:20.151Z,59.63
2022-08-14T21:29:55.949Z,61.09
2022-08-14T21:32:50.174Z,61.20
2022-08-14T21:35:19.613Z,60.40
2022-08-14T21:37:52.533Z,60.53
2022-08-14T21:40:40.736Z,60.51
2022-08-14T21:43:17.554Z,61.43
2022-08-14T21:47:52.118Z,60.97
2022-08-14T21:50:39.901Z,61.03
2022-08-14T21:53:09.759Z,60.46
2022-08-14T21:55:38.524Z,60.34
2022-08-14T22:01:02.917Z,61.08
2022-08-14T22:03:40.866Z,60.91
2022-08-14T22:06:20.809Z,62.87
2022-08-14T22:09:04.275Z,61.74
2022-08-14T22:11:37.747Z,62.27
2022-08-14T22:14:25.967Z,62.02
2022-08-14T22:17:02.140Z,62.15
2022-08-14T22:19:47.564Z,62.29
2022-08-14T22:22:26.715Z,62.53
2022-08-14T22:25:00.332Z,63.09
2022-08-14T22:27:32.715Z,62.94
2022-08-14T22:30:27.814Z,63.37
2022-08-14T22:33:00.649Z,64.34
2022-08-14T22:35:29.189Z,62.96
2022-08-14T22:41:00.241Z,63.84
2022-08-14T22:44:13.672Z,64.01
2022-08-14T22:46:43.611Z,64.04
2022-08-14T22:49:16.599Z,64.16
2022-08-14T22:54:56.228Z,64.70
2022-08-14T22:57:37.855Z,65.50
2022-08-14T23:00:25.313Z,65.49
2022-08-14T23:05:57.348Z,65.10
2022-08-14T23:08:59.676Z,65.71
2022-08-14T23:11:24.302Z,66.23
2022-08-14T23:14:00.680Z,66.30
2022-08-14T23:16:28.198Z,66.20
2022-08-14T23:19:00.689Z,66.06
2022-08-14T23:21:28.869Z,66.24
2022-08-14T23:24:26.856Z,66.14
2022-08-14T23:26:55.117Z,65.57
2022-08-14T23:29:27.374Z,66.84
2022-08-14T23:32:05.987Z,66.80
2022-08-14T23:35:08.518Z,66.29
2022-08-14T23:43:54.525Z,67.32
2022-08-14T23:46:23.933Z,68.01
2022-08-14T23:49:03.107Z,67.89
2022-08-14T23:51:36.412Z,67.63
2022-08-14T23:54:49.296Z,68.02
2022-08-14T23:57:20.237Z,68.21
2022-08-14T23:59:54.233Z,68.52
